createdAt,value
2023-01-09T00:01:25.388Z,10.23
2023-01-09T00:03:52.852Z,6.65
2023-01-09T00:06:20.308Z,4.30
2023-01-09T00:08:47.667Z,4.68
2023-01-09T00:11:15.121Z,7.78
2023-01-09T00:13:42.619Z,6.45
2023-01-09T00:16:12.296Z,6.20
2023-01-09T00:18:39.891Z,7.57
2023-01-09T00:21:09.280Z,6.28
2023-01-09T00:23:37.302Z,7.50
2023-01-09T00:26:07.577Z,7.50
2023-01-09T00:28:35.864Z,7.90
2023-01-09T00:31:04.473Z,7.10
2023-01-09T00:33:38.885Z,6.53
2023-01-09T00:36:06.598Z,9.55
2023-01-09T00:38:33.951Z,9.98
2023-01-09T00:41:03.346Z,6.60
2023-01-09T00:43:37.175Z,7.63
2023-01-09T00:46:06.029Z,7.25
2023-01-09T00:48:34.764Z,9.02
2023-01-09T00:51:02.307Z,10.50
2023-01-09T00:53:32.599Z,7.30
2023-01-09T00:56:01.664Z,10.35
2023-01-09T00:58:29.231Z,5.78
2023-01-09T01:00:56.635Z,7.03
2023-01-09T01:03:23.946Z,6.93
2023-01-09T01:06:09.978Z,11.63
2023-01-09T01:08:37.283Z,13.88
2023-01-09T01:11:10.235Z,13.98
2023-01-09T01:16:06.446Z,10.98
2023-01-09T01:18:33.777Z,13.98
2023-01-09T01:21:01.131Z,10.98
2023-01-09T01:23:28.554Z,12.50
2023-01-09T01:25:56.031Z,12.05
2023-01-09T01:28:23.348Z,12.43
2023-01-09T01:30:50.795Z,14.43
2023-01-09T01:33:18.143Z,10.07
2023-01-09T01:35:45.666Z,10.45
2023-01-09T01:38:12.965Z,6.68
2023-01-09T01:40:40.760Z,12.05
2023-01-09T01:43:12.196Z,19.15
2023-01-09T01:45:40.600Z,10.82
2023-01-09T01:48:11.108Z,13.88
2023-01-09T01:50:47.253Z,12.65
2023-01-09T01:53:25.040Z,13.90
2023-01-09T01:56:15.894Z,13.38
2023-01-09T01:58:48.113Z,12.15
2023-01-09T02:01:16.082Z,12.65
2023-01-09T02:03:44.156Z,11.75
2023-01-09T02:06:13.239Z,16.52
2023-01-09T02:08:40.639Z,9.88
2023-01-09T02:11:08.123Z,14.75
2023-01-09T02:13:38.704Z,16.95
2023-01-09T02:16:22.076Z,11.57
2023-01-09T02:19:11.948Z,14.70
2023-01-09T02:21:39.174Z,13.57
2023-01-09T02:24:06.443Z,13.10
2023-01-09T02:27:03.638Z,8.70
2023-01-09T02:30:00.350Z,9.02
2023-01-09T02:32:39.652Z,7.20
2023-01-09T02:35:42.295Z,9.48
2023-01-09T02:38:59.820Z,11.27
2023-01-09T02:41:40.284Z,17.05
2023-01-09T02:44:24.123Z,10.52
2023-01-09T02:47:08.310Z,9.88
2023-01-09T02:49:40.560Z,14.43
2023-01-09T02:52:37.234Z,10.68
2023-01-09T02:55:34.451Z,10.80
2023-01-09T02:58:10.093Z,14.63
2023-01-09T03:00:49.517Z,16.42
2023-01-09T03:03:38.869Z,10.35
2023-01-09T03:06:29.491Z,9.80
2023-01-09T03:09:09.340Z,9.82
2023-01-09T03:11:40.919Z,13.05
2023-01-09T03:14:14.001Z,9.35
2023-01-09T03:16:45.022Z,13.13
2023-01-09T03:19:16.283Z,17.90
2023-01-09T03:21:44.985Z,12.38
2023-01-09T03:24:12.347Z,12.13
2023-01-09T03:26:39.743Z,11.88
2023-01-09T03:29:07.273Z,16.42
2023-01-09T03:31:34.790Z,10.95
2023-01-09T03:34:02.098Z,11.93
2023-01-09T03:36:29.430Z,15.25
2023-01-09T03:38:56.779Z,15.25
2023-01-09T03:41:24.069Z,14.02
2023-01-09T03:43:51.421Z,13.32
2023-01-09T03:46:18.731Z,11.73
2023-01-09T03:48:46.071Z,17.50
2023-01-09T03:51:13.401Z,15.55
2023-01-09T03:53:41.212Z,14.90
2023-01-09T03:56:08.781Z,15.60
2023-01-09T03:58:36.072Z,13.18
2023-01-09T04:01:05.746Z,8.15
2023-01-09T04:03:33.231Z,13.18
2023-01-09T04:06:00.525Z,12.82
2023-01-09T04:08:28.268Z,13.75
2023-01-09T04:10:55.747Z,14.27
2023-01-09T04:13:23.439Z,9.75
2023-01-09T04:15:51.083Z,11.73
2023-01-09T04:18:18.354Z,8.23
2023-01-09T04:20:48.487Z,12.55
2023-01-09T04:23:16.127Z,7.78
2023-01-09T04:25:43.529Z,11.73
2023-01-09T04:28:11.083Z,10.00
2023-01-09T04:30:38.431Z,18.05
2023-01-09T04:33:05.707Z,15.70
2023-01-09T04:35:33.079Z,9.80
2023-01-09T04:38:01.003Z,9.57
2023-01-09T04:40:28.999Z,8.38
2023-01-09T04:42:56.500Z,10.05
2023-01-09T04:45:23.848Z,8.02
2023-01-09T04:47:51.293Z,9.88
2023-01-09T04:50:18.692Z,9.48
2023-01-09T04:52:46.082Z,13.05
2023-01-09T04:55:13.396Z,10.75
2023-01-09T04:57:40.691Z,8.63
2023-01-09T05:00:10.024Z,13.50
2023-01-09T05:02:37.865Z,9.15
2023-01-09T05:05:08.554Z,10.25
2023-01-09T05:07:38.709Z,9.48
2023-01-09T05:10:06.772Z,12.57
2023-01-09T05:12:36.348Z,15.38
2023-01-09T05:15:05.023Z,10.32
2023-01-09T05:17:32.387Z,10.88
2023-01-09T05:20:01.085Z,13.27
2023-01-09T05:22:28.726Z,9.93
2023-01-09T05:24:56.592Z,11.88
2023-01-09T05:27:24.334Z,9.05
2023-01-09T05:29:51.758Z,14.68
2023-01-09T05:32:19.117Z,12.80
2023-01-09T05:34:46.419Z,12.32
2023-01-09T05:37:13.783Z,10.23
2023-01-09T05:39:41.239Z,10.90
2023-01-09T05:42:08.664Z,11.88
2023-01-09T05:44:36.013Z,12.82
2023-01-09T05:47:03.494Z,15.57
2023-01-09T05:49:30.823Z,16.02
2023-01-09T05:51:58.205Z,10.27
2023-01-09T05:54:25.524Z,14.50
2023-01-09T05:56:52.795Z,15.68
2023-01-09T05:59:20.654Z,11.55
2023-01-09T06:01:48.033Z,13.02
2023-01-09T06:04:16.083Z,12.55
2023-01-09T06:06:43.438Z,12.85
2023-01-09T06:09:10.978Z,20.80
2023-01-09T06:11:38.647Z,14.70
2023-01-09T06:14:07.054Z,19.20
2023-01-09T06:16:34.844Z,13.73
2023-01-09T06:19:02.285Z,10.30
2023-01-09T06:21:30.376Z,14.82
2023-01-09T06:23:59.169Z,13.10
2023-01-09T06:26:28.824Z,19.13
2023-01-09T06:28:56.845Z,12.98
2023-01-09T06:31:25.292Z,16.52
2023-01-09T06:33:52.950Z,13.77
2023-01-09T06:39:11.447Z,15.32
2023-01-09T06:41:41.965Z,14.35
2023-01-09T06:44:09.704Z,11.70
2023-01-09T06:46:37.184Z,10.70
2023-01-09T06:49:06.051Z,11.50
2023-01-09T06:51:34.094Z,14.98
2023-01-09T06:54:05.634Z,17.52
2023-01-09T06:56:36.067Z,11.68
2023-01-09T06:59:06.756Z,13.57
2023-01-09T07:01:37.027Z,12.45
2023-01-09T07:04:05.722Z,12.80
2023-01-09T07:06:33.749Z,10.60
2023-01-09T07:09:02.474Z,14.48
2023-01-09T07:11:34.213Z,8.90
2023-01-09T07:14:01.655Z,7.35
2023-01-09T07:16:32.499Z,7.47
2023-01-09T07:19:02.283Z,8.00
2023-01-09T07:21:32.788Z,11.70
2023-01-09T07:24:00.550Z,6.88
2023-01-09T07:26:29.479Z,6.53
2023-01-09T07:28:58.161Z,9.52
2023-01-09T07:31:26.547Z,12.18
2023-01-09T07:33:58.564Z,10.70
2023-01-09T07:36:32.442Z,8.83
2023-01-09T07:39:03.319Z,8.30
2023-01-09T07:41:31.184Z,8.35
2023-01-09T07:43:58.697Z,10.65
2023-01-09T07:46:33.819Z,9.23
2023-01-09T07:51:45.291Z,5.47
2023-01-09T07:54:13.570Z,11.23
2023-01-09T07:56:41.692Z,10.88
2023-01-09T07:59:09.224Z,8.07
2023-01-09T08:01:36.680Z,10.30
2023-01-09T08:04:04.308Z,11.68
2023-01-09T08:06:32.120Z,13.50
2023-01-09T08:08:59.894Z,10.32
2023-01-09T08:11:32.301Z,16.35
2023-01-09T08:13:59.610Z,10.75
2023-01-09T08:16:29.663Z,13.50
2023-01-09T08:18:58.135Z,17.33
2023-01-09T08:21:25.681Z,12.07
2023-01-09T08:23:53.032Z,12.25
2023-01-09T08:26:20.412Z,11.73
2023-01-09T08:28:48.466Z,13.35
2023-01-09T08:31:16.814Z,16.60
2023-01-09T08:33:44.597Z,17.10
2023-01-09T08:36:12.043Z,16.38
2023-01-09T08:38:39.571Z,15.98
2023-01-09T08:41:25.497Z,17.23
2023-01-09T08:44:11.378Z,18.13
2023-01-09T08:46:57.154Z,20.88
2023-01-09T08:49:24.470Z,19.13
2023-01-09T08:51:51.785Z,15.57
2023-01-09T08:54:19.248Z,22.65
2023-01-09T08:56:46.513Z,19.35
2023-01-09T08:59:14.121Z,16.92
2023-01-09T09:01:41.422Z,21.67
2023-01-09T09:04:08.730Z,16.85
2023-01-09T09:06:36.196Z,23.63
2023-01-09T09:09:03.883Z,16.85
2023-01-09T09:11:34.365Z,21.15
2023-01-09T09:14:25.703Z,18.25
2023-01-09T09:16:53.357Z,17.27
2023-01-09T09:19:20.849Z,12.40
2023-01-09T09:21:48.333Z,12.70
2023-01-09T09:24:15.614Z,13.50
2023-01-09T09:26:44.608Z,15.00
2023-01-09T09:29:12.272Z,9.95
2023-01-09T09:31:39.826Z,11.93
2023-01-09T09:34:08.238Z,10.40
2023-01-09T09:36:37.311Z,11.55
2023-01-09T09:39:07.216Z,14.07
2023-01-09T09:42:31.354Z,19.80
2023-01-09T09:48:07.851Z,16.77
2023-01-09T09:50:59.279Z,11.65
2023-01-09T09:53:40.406Z,18.25
2023-01-09T09:56:11.958Z,16.08
2023-01-09T09:59:01.939Z,14.38
2023-01-09T10:02:02.052Z,15.55
2023-01-09T10:04:32.419Z,15.10
2023-01-09T10:07:06.249Z,17.67
2023-01-09T10:09:41.488Z,17.88
2023-01-09T10:12:11.610Z,16.92
2023-01-09T10:14:39.751Z,18.80
2023-01-09T10:17:19.592Z,14.00
2023-01-09T10:20:13.029Z,9.88
2023-01-09T10:25:36.945Z,13.38
2023-01-09T10:28:46.847Z,14.18
2023-01-09T10:31:23.223Z,16.27
2023-01-09T10:33:53.664Z,16.42
2023-01-09T10:36:39.004Z,19.80
2023-01-09T10:39:10.877Z,18.35
2023-01-09T10:41:58.493Z,17.70
2023-01-09T10:44:37.385Z,21.85
2023-01-09T10:47:22.703Z,20.17
2023-01-09T10:49:50.659Z,17.52
2023-01-09T10:52:20.717Z,20.00
2023-01-09T10:55:19.329Z,20.98
2023-01-09T10:58:00.123Z,20.67
2023-01-09T11:00:27.561Z,23.13
2023-01-09T11:02:55.600Z,19.17
2023-01-09T11:05:28.438Z,16.85
2023-01-09T11:08:05.430Z,17.98
2023-01-09T11:10:47.063Z,19.00
2023-01-09T11:13:35.117Z,23.85
2023-01-09T11:16:04.405Z,23.38
2023-01-09T11:18:32.585Z,26.17
2023-01-09T11:21:32.787Z,24.50
2023-01-09T11:24:18.972Z,22.38
2023-01-09T11:26:47.876Z,25.52
2023-01-09T11:29:17.656Z,23.10
2023-01-09T11:31:55.610Z,26.75
2023-01-09T11:34:25.985Z,22.42
2023-01-09T11:36:54.214Z,22.77
2023-01-09T11:39:26.746Z,26.80
2023-01-09T11:41:55.858Z,19.63
2023-01-09T11:44:23.332Z,23.33
2023-01-09T11:46:50.693Z,22.08
2023-01-09T11:49:18.153Z,25.33
2023-01-09T11:51:45.595Z,19.95
2023-01-09T11:54:21.203Z,15.88
2023-01-09T11:56:48.945Z,25.38
2023-01-09T11:59:19.031Z,19.80
2023-01-09T12:02:34.023Z,26.20
2023-01-09T12:05:35.327Z,26.38
2023-01-09T12:08:19.785Z,25.67
2023-01-09T12:11:02.168Z,21.33
2023-01-09T12:14:07.264Z,27.45
2023-01-09T12:16:38.481Z,22.58
2023-01-09T12:19:50.184Z,24.10
2023-01-09T12:22:38.649Z,22.10
2023-01-09T12:25:41.217Z,17.73
2023-01-09T12:28:29.387Z,16.67
2023-01-09T12:31:04.074Z,15.27
2023-01-09T12:34:01.817Z,19.60
2023-01-09T12:36:35.208Z,19.92
2023-01-09T12:39:21.578Z,19.42
2023-01-09T12:41:58.114Z,20.85
2023-01-09T12:44:43.877Z,23.02
2023-01-09T12:47:20.222Z,14.93
2023-01-09T12:50:17.657Z,28.27
2023-01-09T12:52:55.876Z,21.02
2023-01-09T12:55:24.511Z,18.48
2023-01-09T12:57:54.310Z,16.98
2023-01-09T13:00:40.786Z,22.73
2023-01-09T13:03:27.354Z,20.83
2023-01-09T13:05:57.454Z,15.98
2023-01-09T13:08:47.645Z,23.40
2023-01-09T13:11:20.309Z,22.67
2023-01-09T13:13:50.736Z,14.90
2023-01-09T13:16:45.087Z,22.23
2023-01-09T13:19:20.881Z,20.08
2023-01-09T13:21:48.735Z,17.55
2023-01-09T13:24:34.489Z,13.40
2023-01-09T13:27:14.552Z,14.57
2023-01-09T13:29:45.677Z,20.00
2023-01-09T13:32:12.969Z,23.45
2023-01-09T13:34:47.555Z,20.50
2023-01-09T13:37:24.910Z,16.33
2023-01-09T13:40:01.255Z,17.67
2023-01-09T13:42:46.407Z,17.40
2023-01-09T13:45:24.698Z,15.30
2023-01-09T13:48:11.966Z,20.08
2023-01-09T13:50:41.511Z,19.13
2023-01-09T13:53:27.713Z,23.48
2023-01-09T13:58:39.934Z,21.48
2023-01-09T14:01:27.220Z,19.88
2023-01-09T14:04:21.485Z,23.05
2023-01-09T14:07:20.231Z,27.55
2023-01-09T14:09:54.722Z,18.38
2023-01-09T14:12:24.325Z,16.17
2023-01-09T14:14:53.934Z,23.83
2023-01-09T14:17:50.585Z,21.70
2023-01-09T14:20:48.311Z,21.23
2023-01-09T14:23:50.176Z,26.80
2023-01-09T14:26:26.730Z,21.30
2023-01-09T14:29:29.619Z,23.17
2023-01-09T14:32:22.203Z,20.02
2023-01-09T14:35:13.508Z,26.58
2023-01-09T14:37:41.389Z,23.17
2023-01-09T14:40:22.379Z,20.60
2023-01-09T14:42:54.020Z,29.02
2023-01-09T14:45:24.367Z,22.85
2023-01-09T14:47:54.467Z,28.98
2023-01-09T14:50:38.258Z,27.67
2023-01-09T14:53:12.720Z,19.90
2023-01-09T14:55:48.019Z,28.25
2023-01-09T14:58:25.588Z,22.65
2023-01-09T15:01:03.061Z,20.48
2023-01-09T15:03:43.262Z,16.75
2023-01-09T15:06:24.512Z,18.42
2023-01-09T15:09:23.900Z,23.92
2023-01-09T15:11:53.292Z,19.48
2023-01-09T15:14:31.364Z,24.35
2023-01-09T15:17:00.136Z,22.27
2023-01-09T15:19:28.101Z,17.65
2023-01-09T15:22:04.664Z,21.17
2023-01-09T15:24:34.565Z,24.70
2023-01-09T15:27:29.329Z,25.95
2023-01-09T15:29:57.026Z,25.60
2023-01-09T15:32:24.395Z,18.33
2023-01-09T15:34:52.533Z,17.30
2023-01-09T15:37:40.577Z,23.60
2023-01-09T15:40:13.743Z,11.98
2023-01-09T15:42:58.072Z,17.65
2023-01-09T15:45:33.049Z,18.60
2023-01-09T15:48:25.828Z,15.32
2023-01-09T15:51:03.156Z,14.88
2023-01-09T15:53:30.719Z,11.88
2023-01-09T15:56:17.555Z,10.77
2023-01-09T15:58:52.694Z,9.10
2023-01-09T16:01:26.293Z,12.23
2023-01-09T16:03:56.674Z,11.70
2023-01-09T16:06:29.000Z,14.93
2023-01-09T16:08:58.981Z,14.60
2023-01-09T16:11:33.745Z,11.38
2023-01-09T16:14:27.438Z,13.20
2023-01-09T16:16:59.849Z,12.43
2023-01-09T16:19:47.320Z,11.70
2023-01-09T16:22:29.623Z,12.68
2023-01-09T16:25:02.182Z,12.33
2023-01-09T16:27:34.020Z,14.80
2023-01-09T16:30:02.983Z,12.88
2023-01-09T16:32:35.824Z,10.52
2023-01-09T16:35:14.457Z,10.90
2023-01-09T16:37:42.101Z,12.80
2023-01-09T16:40:18.396Z,11.88
2023-01-09T16:43:01.192Z,12.60
2023-01-09T16:45:34.031Z,12.93
2023-01-09T16:48:02.530Z,14.00
2023-01-09T16:50:29.937Z,15.70
2023-01-09T16:52:58.441Z,12.50
2023-01-09T16:55:25.892Z,16.98
2023-01-09T16:57:53.402Z,14.18
2023-01-09T17:00:21.719Z,11.18
2023-01-09T17:02:49.000Z,14.30
2023-01-09T17:05:16.417Z,11.13
2023-01-09T17:07:43.791Z,16.80
2023-01-09T17:10:21.002Z,14.60
2023-01-09T17:12:49.768Z,16.02
2023-01-09T17:15:19.934Z,13.63
2023-01-09T17:17:47.738Z,15.13
2023-01-09T17:20:18.779Z,16.30
2023-01-09T17:22:46.369Z,11.75
2023-01-09T17:25:33.816Z,14.27
2023-01-09T17:28:21.064Z,13.82
2023-01-09T17:30:48.767Z,13.13
2023-01-09T17:33:17.879Z,16.27
2023-01-09T17:35:45.537Z,12.68
2023-01-09T17:38:16.477Z,13.07
2023-01-09T17:40:44.416Z,17.73
2023-01-09T17:43:12.198Z,20.90
2023-01-09T17:45:43.782Z,20.83
2023-01-09T17:48:15.534Z,15.05
2023-01-09T17:50:43.580Z,21.42
2023-01-09T17:53:11.675Z,19.00
2023-01-09T17:55:39.930Z,21.95
2023-01-09T17:58:07.941Z,11.43
2023-01-09T18:00:41.968Z,18.77
2023-01-09T18:03:09.618Z,18.80
2023-01-09T18:05:39.088Z,15.52
2023-01-09T18:08:09.372Z,13.45
2023-01-09T18:10:37.560Z,12.75
2023-01-09T18:13:05.019Z,20.60
2023-01-09T18:15:32.663Z,21.48
2023-01-09T18:18:00.105Z,19.55
2023-01-09T18:20:27.663Z,21.58
2023-01-09T18:22:55.200Z,19.92
2023-01-09T18:25:23.342Z,17.73
2023-01-09T18:27:54.459Z,21.92
2023-01-09T18:30:21.994Z,17.63
2023-01-09T18:32:49.388Z,17.48
2023-01-09T18:35:17.744Z,19.88
2023-01-09T18:37:48.645Z,20.95
2023-01-09T18:40:16.108Z,29.40
2023-01-09T18:42:45.765Z,21.65
2023-01-09T18:45:13.058Z,20.02
2023-01-09T18:47:40.562Z,19.40
2023-01-09T18:50:08.483Z,16.02
2023-01-09T18:52:35.842Z,22.60
2023-01-09T18:55:03.350Z,26.40
2023-01-09T18:57:30.849Z,18.50
2023-01-09T18:59:58.195Z,24.00
2023-01-09T19:02:26.917Z,22.80
2023-01-09T19:04:54.393Z,20.88
2023-01-09T19:07:21.795Z,26.10
2023-01-09T19:09:49.472Z,19.02
2023-01-09T19:12:20.320Z,26.30
2023-01-09T19:14:47.851Z,26.67
2023-01-09T19:17:15.736Z,23.27
2023-01-09T19:19:43.398Z,23.38
2023-01-09T19:22:10.788Z,19.42
2023-01-09T19:24:38.335Z,22.77
2023-01-09T19:27:05.979Z,21.25
2023-01-09T19:29:36.425Z,18.63
2023-01-09T19:32:08.455Z,16.92
2023-01-09T19:34:36.295Z,19.48
2023-01-09T19:37:03.863Z,20.23
2023-01-09T19:39:32.408Z,23.98
2023-01-09T19:42:02.678Z,19.95
2023-01-09T19:44:32.717Z,19.25
2023-01-09T19:47:00.554Z,20.25
2023-01-09T19:49:28.121Z,20.35
2023-01-09T19:51:58.299Z,20.50
2023-01-09T19:54:25.735Z,19.67
2023-01-09T19:56:53.291Z,17.98
2023-01-09T19:59:20.764Z,16.42
2023-01-09T20:01:48.097Z,22.88
2023-01-09T20:04:16.008Z,23.00
2023-01-09T20:06:46.694Z,16.17
2023-01-09T20:09:18.028Z,15.35
2023-01-09T20:11:45.576Z,22.35
2023-01-09T20:14:14.475Z,14.77
2023-01-09T20:16:43.529Z,18.75
2023-01-09T20:19:14.074Z,18.63
2023-01-09T20:21:42.376Z,20.48
2023-01-09T20:24:16.316Z,21.85
2023-01-09T20:26:45.064Z,16.92
2023-01-09T20:29:13.005Z,17.00
2023-01-09T20:31:43.064Z,21.70
2023-01-09T20:34:14.729Z,19.10
2023-01-09T20:36:42.244Z,16.48
2023-01-09T20:39:13.972Z,20.40
2023-01-09T20:41:45.382Z,17.40
2023-01-09T20:44:20.619Z,18.52
2023-01-09T20:46:50.130Z,26.45
2023-01-09T20:49:21.669Z,22.58
2023-01-09T20:51:52.136Z,16.08
2023-01-09T20:54:21.782Z,15.85
2023-01-09T20:56:49.755Z,21.92
2023-01-09T20:59:20.379Z,18.23
2023-01-09T21:01:48.905Z,19.75
2023-01-09T21:04:18.732Z,21.48
2023-01-09T21:06:53.677Z,17.83
2023-01-09T21:09:21.827Z,14.05
2023-01-09T21:11:53.570Z,20.95
2023-01-09T21:14:21.733Z,16.30
2023-01-09T21:16:54.855Z,15.50
2023-01-09T21:19:23.676Z,16.17
2023-01-09T21:24:35.652Z,14.52
2023-01-09T21:27:09.936Z,19.52
2023-01-09T21:29:41.454Z,20.23
2023-01-09T21:32:09.153Z,21.00
2023-01-09T21:34:37.085Z,15.60
2023-01-09T21:37:05.991Z,16.67
2023-01-09T21:39:34.552Z,15.98
2023-01-09T21:42:21.237Z,18.50
2023-01-09T21:45:07.754Z,16.27
2023-01-09T21:47:35.678Z,22.80
2023-01-09T21:50:03.715Z,15.73
2023-01-09T21:52:31.105Z,17.45
2023-01-09T21:54:59.354Z,15.52
2023-01-09T21:57:26.927Z,21.40
2023-01-09T21:59:55.455Z,19.83
2023-01-09T22:02:24.873Z,18.38
2023-01-09T22:04:54.219Z,24.45
2023-01-09T22:07:23.773Z,21.75
2023-01-09T22:09:52.643Z,21.52
2023-01-09T22:12:26.986Z,17.52
2023-01-09T22:14:58.526Z,21.90
2023-01-09T22:20:24.617Z,21.48
2023-01-09T22:25:38.523Z,26.80
2023-01-09T22:28:10.321Z,17.77
2023-01-09T22:30:42.857Z,20.83
2023-01-09T22:33:11.762Z,22.80
2023-01-09T22:35:43.984Z,23.20
2023-01-09T22:38:12.253Z,23.38
2023-01-09T22:40:40.785Z,19.98
2023-01-09T22:43:09.150Z,24.92
2023-01-09T22:45:36.678Z,31.08
2023-01-09T22:48:04.297Z,22.63
2023-01-09T22:50:31.784Z,23.38
2023-01-09T22:52:59.274Z,26.75
2023-01-09T22:55:27.451Z,21.25
2023-01-09T22:57:55.014Z,17.52
2023-01-09T23:00:22.570Z,20.05
2023-01-09T23:02:50.158Z,20.60
2023-01-09T23:05:22.576Z,21.35
2023-01-09T23:07:50.819Z,16.00
2023-01-09T23:10:18.568Z,27.38
2023-01-09T23:12:48.562Z,27.75
2023-01-09T23:15:16.422Z,22.60
2023-01-09T23:17:43.900Z,26.55
2023-01-09T23:20:12.464Z,22.50
2023-01-09T23:22:39.887Z,30.25
2023-01-09T23:25:08.263Z,24.35
2023-01-09T23:27:35.715Z,19.42
2023-01-09T23:30:04.513Z,26.90
2023-01-09T23:32:31.941Z,24.52
2023-01-09T23:35:02.847Z,23.25
2023-01-09T23:37:30.441Z,25.63
2023-01-09T23:39:58.078Z,19.88
2023-01-09T23:42:44.848Z,25.17
2023-01-09T23:45:12.334Z,29.88
2023-01-09T23:47:40.092Z,23.65
2023-01-09T23:50:09.784Z,29.65
2023-01-09T23:52:37.360Z,22.27
2023-01-09T23:55:05.390Z,26.85
2023-01-09T23:57:33.532Z,34.88
